createdAt,value
2024-01-09T00:02:46.915Z,-4.45
2024-01-09T00:05:49.107Z,-4.42
2024-01-09T00:08:51.455Z,-4.38
2024-01-09T00:11:53.352Z,-4.41
2024-01-09T00:14:55.092Z,-4.44
2024-01-09T00:17:59.156Z,-4.47
2024-01-09T00:21:00.890Z,-4.50
2024-01-09T00:24:02.502Z,-4.52
2024-01-09T00:27:04.218Z,-4.53
2024-01-09T00:30:06.513Z,-4.52
2024-01-09T00:33:08.380Z,-4.51
2024-01-09T00:36:10.315Z,-4.51
2024-01-09T00:39:12.795Z,-4.53
2024-01-09T00:42:15.078Z,-4.54
2024-01-09T00:45:16.728Z,-4.56
2024-01-09T00:48:19.425Z,-4.57
2024-01-09T00:51:21.326Z,-4.61
2024-01-09T00:54:23.006Z,-4.64
2024-01-09T00:57:24.707Z,-4.65
2024-01-09T01:00:26.833Z,-4.68
2024-01-09T01:03:30.092Z,-4.70
2024-01-09T01:06:40.969Z,-4.77
2024-01-09T01:09:43.044Z,-4.80
2024-01-09T01:12:44.678Z,-4.82
2024-01-09T01:15:46.361Z,-4.89
2024-01-09T01:18:48.644Z,-4.89
2024-01-09T01:21:50.288Z,-5.00
2024-01-09T01:24:51.971Z,-4.96
2024-01-09T01:27:53.625Z,-4.98
2024-01-09T01:30:55.917Z,-5.02
2024-01-09T01:33:57.714Z,-5.06
2024-01-09T01:37:00.255Z,-5.12
2024-01-09T01:40:02.072Z,-5.19
2024-01-09T01:43:06.248Z,-5.22
2024-01-09T01:46:09.227Z,-5.27
2024-01-09T01:49:13.907Z,-5.25
2024-01-09T01:52:15.998Z,-5.28
2024-01-09T01:55:21.851Z,-5.31
2024-01-09T01:58:27.833Z,-5.34
2024-01-09T02:01:30.328Z,-5.34
2024-01-09T02:04:33.658Z,-5.36
2024-01-09T02:07:36.123Z,-5.42
2024-01-09T02:10:37.811Z,-5.41
2024-01-09T02:13:39.434Z,-5.43
2024-01-09T02:16:41.353Z,-5.45
2024-01-09T02:19:43.050Z,-5.45
2024-01-09T02:22:44.773Z,-5.46
2024-01-09T02:25:47.676Z,-5.49
2024-01-09T02:28:55.219Z,-5.53
2024-01-09T02:31:57.552Z,-5.50
2024-01-09T02:35:00.539Z,-5.52
2024-01-09T02:38:03.408Z,-5.52
2024-01-09T02:41:06.349Z,-5.52
2024-01-09T02:44:08.611Z,-5.52
2024-01-09T02:47:10.838Z,-5.55
2024-01-09T02:50:12.965Z,-5.59
2024-01-09T02:53:14.691Z,-5.58
2024-01-09T02:56:16.439Z,-5.58
2024-01-09T02:59:18.571Z,-5.58
2024-01-09T03:02:21.309Z,-5.63
2024-01-09T03:05:23.173Z,-5.55
2024-01-09T03:08:25.379Z,-5.54
2024-01-09T03:11:27.509Z,-5.55
2024-01-09T03:14:29.987Z,-5.56
2024-01-09T03:17:32.144Z,-5.51
2024-01-09T03:20:33.886Z,-5.50
2024-01-09T03:23:35.695Z,-5.51
2024-01-09T03:26:37.498Z,-5.45
2024-01-09T03:29:40.621Z,-5.44
2024-01-09T03:32:42.331Z,-5.41
2024-01-09T03:35:44.505Z,-5.39
2024-01-09T03:38:46.355Z,-5.37
2024-01-09T03:41:48.069Z,-5.36
2024-01-09T03:44:49.814Z,-5.35
2024-01-09T03:47:52.073Z,-5.32
2024-01-09T03:50:54.417Z,-5.37
2024-01-09T03:53:56.213Z,-5.31
2024-01-09T03:56:58.951Z,-5.34
2024-01-09T04:00:00.848Z,-5.32
2024-01-09T04:03:02.760Z,-5.30
2024-01-09T04:06:04.886Z,-5.30
2024-01-09T04:09:07.024Z,-5.29
2024-01-09T04:12:09.829Z,-5.30
2024-01-09T04:15:11.923Z,-5.31
2024-01-09T04:18:14.218Z,-5.33
2024-01-09T04:21:16.938Z,-5.36
2024-01-09T04:24:19.457Z,-5.39
2024-01-09T04:27:21.682Z,-5.38
2024-01-09T04:30:23.446Z,-5.41
2024-01-09T04:33:25.480Z,-5.42
2024-01-09T04:36:27.330Z,-5.42
2024-01-09T04:39:29.413Z,-5.44
2024-01-09T04:42:31.448Z,-5.51
2024-01-09T04:45:33.101Z,-5.46
2024-01-09T04:48:34.935Z,-5.48
2024-01-09T04:51:37.108Z,-5.54
2024-01-09T04:54:39.119Z,-5.59
2024-01-09T04:57:41.776Z,-5.58
2024-01-09T05:00:43.875Z,-5.60
2024-01-09T05:03:48.608Z,-5.57
2024-01-09T05:06:51.386Z,-5.67
2024-01-09T05:09:53.478Z,-5.62
2024-01-09T05:12:55.078Z,-5.56
2024-01-09T05:15:57.583Z,-5.53
2024-01-09T05:19:00.282Z,-5.54
2024-01-09T05:22:02.062Z,-5.61
2024-01-09T05:25:04.350Z,-5.53
2024-01-09T05:28:06.726Z,-5.56
2024-01-09T05:31:08.399Z,-5.54
2024-01-09T05:34:10.346Z,-5.55
2024-01-09T05:37:12.251Z,-5.57
2024-01-09T05:40:14.063Z,-5.63
2024-01-09T05:43:15.694Z,-5.64
2024-01-09T05:46:17.434Z,-5.60
2024-01-09T05:49:19.601Z,-5.60
2024-01-09T05:52:21.718Z,-5.59
2024-01-09T05:55:24.184Z,-5.61
2024-01-09T05:58:26.070Z,-5.62
2024-01-09T06:01:28.233Z,-5.65
2024-01-09T06:04:29.899Z,-5.66
2024-01-09T06:07:32.174Z,-5.66
2024-01-09T06:10:33.809Z,-5.69
2024-01-09T06:13:35.410Z,-5.71
2024-01-09T06:16:37.482Z,-5.70
2024-01-09T06:19:39.739Z,-5.73
2024-01-09T06:22:41.681Z,-5.75
2024-01-09T06:25:43.310Z,-5.76
2024-01-09T06:28:44.914Z,-5.75
2024-01-09T06:31:47.026Z,-5.74
2024-01-09T06:34:48.726Z,-5.74
2024-01-09T06:37:51.383Z,-5.74
2024-01-09T06:40:53.038Z,-5.75
2024-01-09T06:43:55.201Z,-5.76
2024-01-09T06:46:58.055Z,-5.73
2024-01-09T06:49:59.777Z,-5.74
2024-01-09T06:53:02.279Z,-5.77
2024-01-09T06:56:05.511Z,-5.77
2024-01-09T06:59:07.571Z,-5.76
2024-01-09T07:02:09.627Z,-5.78
2024-01-09T07:05:11.863Z,-5.80
2024-01-09T07:08:13.754Z,-5.84
2024-01-09T07:11:15.513Z,-5.84
2024-01-09T07:14:17.589Z,-5.88
2024-01-09T07:17:19.315Z,-5.92
2024-01-09T07:20:21.703Z,-5.95
2024-01-09T07:23:23.392Z,-5.93
2024-01-09T07:26:25.494Z,-5.96
2024-01-09T07:29:27.186Z,-5.97
2024-01-09T07:32:29.731Z,-5.98
2024-01-09T07:35:35.625Z,-5.99
2024-01-09T07:38:37.425Z,-5.97
2024-01-09T07:41:39.993Z,-5.97
2024-01-09T07:44:42.078Z,-6.04
2024-01-09T07:47:43.844Z,-6.02
2024-01-09T07:50:45.616Z,-6.00
2024-01-09T07:53:47.368Z,-6.07
2024-01-09T07:56:49.533Z,-6.08
2024-01-09T07:59:51.713Z,-6.09
2024-01-09T08:02:53.747Z,-6.09
2024-01-09T08:05:57.162Z,-6.12
2024-01-09T08:08:59.498Z,-6.10
2024-01-09T08:12:01.879Z,-6.14
2024-01-09T08:15:04.172Z,-6.16
2024-01-09T08:18:06.042Z,-6.17
2024-01-09T08:21:09.145Z,-6.16
2024-01-09T08:24:19.186Z,-6.14
2024-01-09T08:27:21.773Z,-6.13
2024-01-09T08:30:23.488Z,-6.15
2024-01-09T08:33:27.427Z,-6.15
2024-01-09T08:36:30.698Z,-6.19
2024-01-09T08:39:32.377Z,-6.21
2024-01-09T08:42:34.493Z,-6.19
2024-01-09T08:45:37.186Z,-6.17
2024-01-09T08:48:39.888Z,-6.18
2024-01-09T08:51:42.087Z,-6.15
2024-01-09T08:54:44.132Z,-6.12
2024-01-09T08:57:46.813Z,-6.13
2024-01-09T09:00:50.441Z,-6.10
2024-01-09T09:03:52.248Z,-6.11
2024-01-09T09:06:54.941Z,-6.11
2024-01-09T09:09:58.016Z,-6.10
2024-01-09T09:13:00.068Z,-6.14
2024-01-09T09:16:02.885Z,-6.14
2024-01-09T09:19:05.090Z,-6.11
2024-01-09T09:22:07.261Z,-6.14
2024-01-09T09:25:09.333Z,-6.09
2024-01-09T09:28:11.988Z,-6.01
2024-01-09T09:31:14.013Z,-5.99
2024-01-09T09:34:16.202Z,-5.96
2024-01-09T09:37:18.422Z,-5.92
2024-01-09T09:40:20.105Z,-5.96
2024-01-09T09:43:25.575Z,-5.92
2024-01-09T09:46:30.206Z,-5.91
2024-01-09T09:49:32.541Z,-5.93
2024-01-09T09:52:37.788Z,-5.87
2024-01-09T09:55:41.400Z,-5.91
2024-01-09T09:58:43.757Z,-5.84
2024-01-09T10:01:47.664Z,-5.81
2024-01-09T10:04:53.004Z,-5.75
2024-01-09T10:07:57.226Z,-5.75
2024-01-09T10:10:59.300Z,-5.72
2024-01-09T10:14:01.460Z,-5.67
2024-01-09T10:17:06.468Z,-5.66
2024-01-09T10:20:10.122Z,-5.69
2024-01-09T10:23:12.817Z,-5.76
2024-01-09T10:26:14.579Z,-5.68
2024-01-09T10:29:16.319Z,-5.68
2024-01-09T10:32:19.928Z,-5.69
2024-01-09T10:35:21.996Z,-5.65
2024-01-09T10:38:26.255Z,-5.58
2024-01-09T10:41:28.616Z,-5.54
2024-01-09T10:44:31.375Z,-5.53
2024-01-09T10:47:35.039Z,-5.49
2024-01-09T10:50:36.920Z,-5.54
2024-01-09T10:53:41.684Z,-5.45
2024-01-09T10:56:44.514Z,-5.46
2024-01-09T10:59:48.043Z,-5.45
2024-01-09T11:02:50.338Z,-5.42
2024-01-09T11:05:55.609Z,-5.38
2024-01-09T11:09:00.806Z,-5.36
2024-01-09T11:12:04.535Z,-5.30
2024-01-09T11:15:29.864Z,-5.24
2024-01-09T11:18:34.143Z,-5.19
2024-01-09T11:21:36.736Z,-5.15
2024-01-09T11:24:42.232Z,-5.10
2024-01-09T11:27:49.096Z,-5.06
2024-01-09T11:30:52.443Z,-5.02
2024-01-09T11:33:57.061Z,-5.01
2024-01-09T11:36:59.208Z,-4.97
2024-01-09T11:40:01.085Z,-4.95
2024-01-09T11:43:03.168Z,-4.96
2024-01-09T11:46:06.210Z,-4.91
2024-01-09T11:49:09.365Z,-4.86
2024-01-09T11:52:12.200Z,-4.85
2024-01-09T11:55:14.101Z,-4.80
2024-01-09T11:58:16.877Z,-4.75
2024-01-09T12:01:20.667Z,-4.75
2024-01-09T12:04:23.975Z,-4.71
2024-01-09T12:07:26.231Z,-4.65
2024-01-09T12:10:33.265Z,-4.63
2024-01-09T12:13:36.329Z,-4.56
2024-01-09T12:16:38.398Z,-4.57
2024-01-09T12:19:41.936Z,-4.51
2024-01-09T12:22:43.696Z,-4.45
2024-01-09T12:25:48.946Z,-4.42
2024-01-09T12:28:51.523Z,-4.37
2024-01-09T12:31:53.237Z,-4.34
2024-01-09T12:34:55.055Z,-4.31
2024-01-09T12:37:56.809Z,-4.28
2024-01-09T12:41:02.965Z,-4.30
2024-01-09T12:44:13.058Z,-4.21
2024-01-09T12:47:18.616Z,-4.15
2024-01-09T12:50:29.593Z,-4.13
2024-01-09T12:53:33.238Z,-4.10
2024-01-09T12:56:35.475Z,-4.07
2024-01-09T12:59:41.260Z,-4.05
2024-01-09T13:02:43.853Z,-4.00
2024-01-09T13:05:45.692Z,-3.97
2024-01-09T13:08:47.477Z,-3.92
2024-01-09T13:11:49.195Z,-3.89
2024-01-09T13:14:51.337Z,-3.87
2024-01-09T13:17:53.334Z,-3.87
2024-01-09T13:20:56.906Z,-3.86
2024-01-09T13:24:04.207Z,-3.84
2024-01-09T13:27:08.017Z,-3.87
2024-01-09T13:33:15.572Z,-3.84
2024-01-09T13:36:19.996Z,-3.83
2024-01-09T13:39:24.719Z,-3.77
2024-01-09T13:42:26.670Z,-3.74
2024-01-09T13:45:30.298Z,-3.74
2024-01-09T13:48:33.472Z,-3.75
2024-01-09T13:51:50.719Z,-3.71
2024-01-09T13:54:56.816Z,-3.65
2024-01-09T13:57:58.654Z,-3.64
2024-01-09T14:01:01.004Z,-3.63
2024-01-09T14:04:05.022Z,-3.61
2024-01-09T14:07:10.608Z,-3.59
2024-01-09T14:10:12.889Z,-3.58
2024-01-09T14:13:15.106Z,-3.55
2024-01-09T14:16:16.704Z,-3.55
2024-01-09T14:19:20.968Z,-3.53
2024-01-09T14:22:26.111Z,-3.50
2024-01-09T14:25:28.694Z,-3.48
2024-01-09T14:28:31.211Z,-3.50
2024-01-09T14:31:33.039Z,-3.55
2024-01-09T14:34:35.160Z,-3.50
2024-01-09T14:37:36.865Z,-3.54
2024-01-09T14:40:40.010Z,-3.53
2024-01-09T14:43:43.072Z,-3.56
2024-01-09T14:46:45.653Z,-3.56
2024-01-09T14:49:47.865Z,-3.57
2024-01-09T14:52:49.604Z,-3.60
2024-01-09T14:55:51.288Z,-3.59
2024-01-09T14:58:52.995Z,-3.60
2024-01-09T15:01:54.720Z,-3.60
2024-01-09T15:04:56.899Z,-3.64
2024-01-09T15:07:59.444Z,-3.65
2024-01-09T15:11:01.531Z,-3.66
2024-01-09T15:14:04.437Z,-3.65
2024-01-09T15:17:06.160Z,-3.65
2024-01-09T15:20:10.845Z,-3.65
2024-01-09T15:23:13.650Z,-3.66
2024-01-09T15:26:15.665Z,-3.66
2024-01-09T15:29:17.801Z,-3.68
2024-01-09T15:32:20.385Z,-3.70
2024-01-09T15:35:25.594Z,-3.73
2024-01-09T15:38:28.609Z,-3.74
2024-01-09T15:41:33.049Z,-3.77
2024-01-09T15:44:38.948Z,-3.81
2024-01-09T15:47:42.298Z,-3.82
2024-01-09T15:50:44.893Z,-3.86
2024-01-09T15:53:47.387Z,-3.89
2024-01-09T15:56:49.649Z,-3.90
2024-01-09T15:59:52.322Z,-3.96
2024-01-09T16:02:54.007Z,-3.99
2024-01-09T16:05:55.688Z,-4.03
2024-01-09T16:08:57.318Z,-4.04
2024-01-09T16:12:00.824Z,-4.07
2024-01-09T16:15:02.520Z,-4.10
2024-01-09T16:18:05.018Z,-4.15
2024-01-09T16:21:06.676Z,-4.20
2024-01-09T16:24:10.324Z,-4.27
2024-01-09T16:27:12.529Z,-4.32
2024-01-09T16:30:14.766Z,-4.36
2024-01-09T16:33:17.343Z,-4.41
2024-01-09T16:36:19.677Z,-4.45
2024-01-09T16:39:24.101Z,-4.50
2024-01-09T16:42:26.557Z,-4.54
2024-01-09T16:45:29.153Z,-4.60
2024-01-09T16:48:35.636Z,-4.64
2024-01-09T16:51:43.606Z,-4.68
2024-01-09T16:54:45.723Z,-4.70
2024-01-09T16:57:47.388Z,-4.76
2024-01-09T17:00:50.389Z,-4.79
2024-01-09T17:03:52.771Z,-4.85
2024-01-09T17:06:55.306Z,-4.85
2024-01-09T17:10:01.453Z,-4.90
2024-01-09T17:13:04.866Z,-4.90
2024-01-09T17:16:09.551Z,-4.94
2024-01-09T17:19:13.229Z,-4.97
2024-01-09T17:22:15.474Z,-5.01
2024-01-09T17:25:19.566Z,-5.02
2024-01-09T17:28:21.422Z,-5.06
2024-01-09T17:31:23.161Z,-5.07
2024-01-09T17:34:24.829Z,-5.17
2024-01-09T17:37:27.570Z,-5.13
2024-01-09T17:40:29.968Z,-5.16
2024-01-09T17:43:32.770Z,-5.20
2024-01-09T17:46:34.482Z,-5.23
2024-01-09T17:49:36.577Z,-5.26
2024-01-09T17:52:38.656Z,-5.28
2024-01-09T17:55:40.604Z,-5.36
2024-01-09T17:58:42.361Z,-5.33
2024-01-09T18:01:45.781Z,-5.35
2024-01-09T18:04:47.625Z,-5.36
2024-01-09T18:07:50.665Z,-5.40
2024-01-09T18:10:52.361Z,-5.43
2024-01-09T18:13:55.707Z,-5.44
2024-01-09T18:16:59.478Z,-5.45
2024-01-09T18:20:01.429Z,-5.48
2024-01-09T18:23:03.298Z,-5.51
2024-01-09T18:26:10.700Z,-5.53
2024-01-09T18:29:18.464Z,-5.58
2024-01-09T18:32:24.767Z,-5.58
2024-01-09T18:35:29.145Z,-5.62
2024-01-09T18:38:31.951Z,-5.65
2024-01-09T18:41:34.139Z,-5.65
2024-01-09T18:44:36.719Z,-5.68
2024-01-09T18:47:41.819Z,-5.70
2024-01-09T18:50:47.196Z,-5.74
2024-01-09T18:53:48.947Z,-5.75
2024-01-09T18:56:51.197Z,-5.79
2024-01-09T18:59:52.946Z,-5.80
2024-01-09T19:02:54.649Z,-5.83
2024-01-09T19:05:58.313Z,-5.86
2024-01-09T19:09:00.618Z,-5.89
2024-01-09T19:12:03.272Z,-5.93
2024-01-09T19:15:07.334Z,-5.97
2024-01-09T19:18:09.612Z,-5.98
2024-01-09T19:21:11.755Z,-6.01
2024-01-09T19:24:13.811Z,-6.03
2024-01-09T19:27:15.467Z,-6.07
2024-01-09T19:30:18.164Z,-6.08
2024-01-09T19:33:20.308Z,-6.11
2024-01-09T19:36:22.436Z,-6.13
2024-01-09T19:39:24.185Z,-6.17
2024-01-09T19:42:26.233Z,-6.20
2024-01-09T19:45:29.491Z,-6.21
2024-01-09T19:48:31.238Z,-6.23
2024-01-09T19:51:33.049Z,-6.28
2024-01-09T19:54:38.673Z,-6.29
2024-01-09T19:57:41.680Z,-6.33
2024-01-09T20:00:43.810Z,-6.36
2024-01-09T20:03:45.847Z,-6.39
2024-01-09T20:06:48.000Z,-6.48
2024-01-09T20:09:50.504Z,-6.41
2024-01-09T20:12:52.250Z,-6.43
2024-01-09T20:15:53.926Z,-6.47
2024-01-09T20:18:56.911Z,-6.49
2024-01-09T20:21:59.161Z,-6.52
2024-01-09T20:25:01.686Z,-6.55
2024-01-09T20:28:03.396Z,-6.58
2024-01-09T20:31:10.238Z,-6.61
2024-01-09T20:34:12.333Z,-6.63
2024-01-09T20:37:17.477Z,-6.67
2024-01-09T20:40:19.561Z,-6.68
2024-01-09T20:43:21.152Z,-6.68
2024-01-09T20:46:22.812Z,-6.71
2024-01-09T20:49:25.321Z,-6.76
2024-01-09T20:52:27.028Z,-6.82
2024-01-09T20:55:30.033Z,-6.80
2024-01-09T20:58:32.429Z,-6.83
2024-01-09T21:01:38.873Z,-6.84
2024-01-09T21:04:40.760Z,-6.86
2024-01-09T21:07:44.057Z,-6.86
2024-01-09T21:10:46.142Z,-6.89
2024-01-09T21:13:47.877Z,-6.91
2024-01-09T21:16:50.084Z,-6.95
2024-01-09T21:19:51.779Z,-6.98
2024-01-09T21:22:53.795Z,-6.99
2024-01-09T21:25:55.575Z,-6.99
2024-01-09T21:28:57.705Z,-6.99
2024-01-09T21:31:59.396Z,-7.01
2024-01-09T21:35:02.432Z,-7.03
2024-01-09T21:38:05.354Z,-7.04
2024-01-09T21:41:08.593Z,-7.07
2024-01-09T21:44:10.285Z,-7.08
2024-01-09T21:47:12.169Z,-7.11
2024-01-09T21:50:14.049Z,-7.11
2024-01-09T21:53:16.299Z,-7.11
2024-01-09T21:56:18.096Z,-7.14
2024-01-09T21:59:21.599Z,-7.13
2024-01-09T22:02:24.342Z,-7.12
2024-01-09T22:05:26.584Z,-7.14
2024-01-09T22:08:28.260Z,-7.14
2024-01-09T22:11:30.994Z,-7.14
2024-01-09T22:14:32.917Z,-7.17
2024-01-09T22:17:35.027Z,-7.16
2024-01-09T22:20:36.620Z,-7.17
2024-01-09T22:23:39.762Z,-7.15
2024-01-09T22:26:45.630Z,-7.17
2024-01-09T22:29:47.229Z,-7.13
2024-01-09T22:32:49.789Z,-7.13
2024-01-09T22:35:51.655Z,-7.12
2024-01-09T22:38:53.793Z,-7.07
2024-01-09T22:41:55.475Z,-7.04
2024-01-09T22:44:57.097Z,-7.02
2024-01-09T22:47:59.133Z,-7.00
2024-01-09T22:51:01.765Z,-6.97
2024-01-09T22:54:04.914Z,-6.96
2024-01-09T22:57:08.064Z,-6.93
2024-01-09T23:00:22.719Z,-6.91
2024-01-09T23:03:25.616Z,-6.90
2024-01-09T23:06:27.319Z,-6.88
2024-01-09T23:09:29.378Z,-6.89
2024-01-09T23:12:30.956Z,-6.85
2024-01-09T23:15:32.590Z,-6.85
2024-01-09T23:18:34.284Z,-6.83
2024-01-09T23:21:35.922Z,-6.81
2024-01-09T23:24:38.430Z,-6.79
2024-01-09T23:27:40.425Z,-6.78
2024-01-09T23:30:42.093Z,-6.76
2024-01-09T23:33:44.533Z,-6.76
2024-01-09T23:36:46.783Z,-6.76
2024-01-09T23:39:48.376Z,-6.80
2024-01-09T23:42:50.024Z,-6.77
2024-01-09T23:45:51.635Z,-6.73
2024-01-09T23:48:53.828Z,-6.74
2024-01-09T23:51:56.427Z,-6.74
2024-01-09T23:54:59.690Z,-6.72
2024-01-09T23:58:01.823Z,-6.74
